Time;durP1;ratioP1;P1;durP2;ratioP2;P2;SDS_P1;SDS_P2;PMS_P1;PMS_P2;Temp;Humidity;BMP_temperature;BMP_pressure;BME280_temperature;BME280_humidity;BME280_pressure;Samples;Min_cycle;Max_cycle;Signal;HPM_P1;HPM_P2
2022/09/24 00:01:07;;;;;;;1.65;1.55;;;;;;;;;;5026626;28;20060;-75
2022/09/24 00:03:44;;;;;;;1.40;0.80;;;;;;;;;;5016133;28;20263;-73
2022/09/24 00:06:13;;;;;;;3.50;2.30;;;;;;;;;;5014809;28;20060;-76
2022/09/24 00:08:42;;;;;;;3.75;1.20;;;;;;;;;;5023800;28;20397;-76
2022/09/24 00:11:12;;;;;;;2.10;1.45;;;;;;;;;;5017266;28;20057;-76
2022/09/24 00:13:41;;;;;;;2.45;1.30;;;;;;;;;;5021693;28;20053;-76
2022/09/24 00:16:11;;;;;;;2.10;1.30;;;;;;;;;;5023609;28;20045;-75
2022/09/24 00:18:40;;;;;;;2.15;1.05;;;;;;;;;;5022496;28;20524;-75
2022/09/24 00:21:15;;;;;;;0.73;0.73;;;;;;;;;;5019814;28;20049;-76
2022/09/24 00:23:44;;;;;;;0.80;0.77;;;;;;;;;;5024076;28;20070;-76
2022/09/24 00:28:59;;;;;;;2.35;0.98;;;;;;;;;;5011895;28;20464;-75
2022/09/24 00:31:28;;;;;;;7.72;1.33;;;;;;;;;;5022147;28;20535;-75
2022/09/24 00:33:56;;;;;;;1.65;1.30;;;;;;;;;;5011708;28;20052;-76
2022/09/24 00:36:25;;;;;;;2.40;1.10;;;;;;;;;;5025799;28;20061;-75
2022/09/24 00:38:54;;;;;;;1.35;1.02;;;;;;;;;;5018609;28;20058;-75
2022/09/24 00:41:24;;;;;;;2.05;1.20;;;;;;;;;;5017558;28;20048;-76
2022/09/24 00:43:53;;;;;;;1.20;0.95;;;;;;;;;;5016329;28;20053;-76
2022/09/24 00:46:26;;;;;;;2.47;1.10;;;;;;;;;;5022323;28;20045;-76
2022/09/24 00:48:56;;;;;;;0.98;0.90;;;;;;;;;;5015710;28;20149;-75
2022/09/24 00:51:27;;;;;;;1.65;1.23;;;;;;;;;;5022796;28;20485;-75
2022/09/24 00:53:57;;;;;;;1.67;1.08;;;;;;;;;;5021890;28;20050;-75
2022/09/24 00:56:27;;;;;;;0.70;0.70;;;;;;;;;;5017370;28;20049;-76
2022/09/24 00:58:57;;;;;;;1.10;0.90;;;;;;;;;;5023412;28;20046;-76
2022/09/24 01:01:26;;;;;;;1.55;0.98;;;;;;;;;;5026367;28;20054;-76
2022/09/24 01:03:56;;;;;;;1.00;0.93;;;;;;;;;;5018558;28;20045;-75
2022/09/24 01:06:25;;;;;;;1.42;1.25;;;;;;;;;;5019127;28;20131;-76
2022/09/24 01:08:54;;;;;;;2.65;1.08;;;;;;;;;;5019003;28;20059;-76
2022/09/24 01:11:40;;;;;;;2.40;1.40;;;;;;;;;;5019965;28;20049;-76
2022/09/24 01:14:26;;;;;;;1.52;1.05;;;;;;;;;;5015816;28;20050;-75
2022/09/24 01:16:59;;;;;;;1.55;1.10;;;;;;;;;;5023345;28;20055;-76
2022/09/24 01:19:41;;;;;;;1.35;1.25;;;;;;;;;;5017042;28;20041;-76
2022/09/24 01:22:16;;;;;;;1.35;1.02;;;;;;;;;;5017615;28;20490;-75
2022/09/24 01:24:49;;;;;;;0.90;0.90;;;;;;;;;;5020032;28;20137;-75
2022/09/24 01:27:19;;;;;;;1.65;1.20;;;;;;;;;;5024431;28;20041;-75
2022/09/24 01:29:58;;;;;;;1.50;1.38;;;;;;;;;;5020806;28;20068;-77
2022/09/24 01:32:32;;;;;;;1.00;0.82;;;;;;;;;;5017735;28;20050;-76
2022/09/24 01:35:02;;;;;;;1.65;1.08;;;;;;;;;;5026980;28;20041;-76
2022/09/24 01:37:33;;;;;;;1.30;0.90;;;;;;;;;;5021970;28;20056;-75
2022/09/24 01:40:02;;;;;;;1.67;1.10;;;;;;;;;;5027715;28;20069;-76
2022/09/24 01:42:31;;;;;;;2.15;0.93;;;;;;;;;;5019332;28;20037;-78
2022/09/24 01:45:01;;;;;;;0.70;0.70;;;;;;;;;;5027826;28;20045;-76
2022/09/24 01:47:31;;;;;;;3.90;1.92;;;;;;;;;;5025943;28;20076;-75
2022/09/24 01:50:02;;;;;;;1.48;0.80;;;;;;;;;;5024014;28;20092;-76
2022/09/24 01:52:34;;;;;;;1.45;1.02;;;;;;;;;;5021600;28;20068;-76
2022/09/24 01:55:04;;;;;;;1.55;1.40;;;;;;;;;;5018369;28;20051;-75
2022/09/24 01:57:34;;;;;;;0.77;0.77;;;;;;;;;;5018867;28;20064;-76
2022/09/24 02:00:08;;;;;;;1.50;1.20;;;;;;;;;;5026727;28;20049;-76
2022/09/24 02:02:39;;;;;;;1.10;1.00;;;;;;;;;;5023034;28;20356;-76
2022/09/24 02:05:12;;;;;;;2.15;1.42;;;;;;;;;;5027190;28;20497;-75
2022/09/24 02:07:45;;;;;;;1.48;0.98;;;;;;;;;;5020386;28;20061;-75
2022/09/24 02:10:15;;;;;;;2.58;1.15;;;;;;;;;;5028294;28;20046;-75
2022/09/24 02:12:44;;;;;;;2.10;1.00;;;;;;;;;;5026047;28;21950;-76
2022/09/24 02:15:17;;;;;;;2.63;1.38;;;;;;;;;;5029135;28;20057;-76
2022/09/24 02:17:47;;;;;;;4.70;1.17;;;;;;;;;;5027019;28;20661;-76
2022/09/24 02:20:17;;;;;;;1.85;1.10;;;;;;;;;;5031110;28;20103;-75
2022/09/24 02:22:46;;;;;;;7.55;1.67;;;;;;;;;;5028430;28;20045;-76
2022/09/24 02:25:16;;;;;;;2.05;1.30;;;;;;;;;;5027053;28;20049;-76
2022/09/24 02:27:44;;;;;;;1.10;1.05;;;;;;;;;;5019848;28;20064;-76
2022/09/24 02:30:14;;;;;;;0.82;0.82;;;;;;;;;;5027784;28;20041;-75
2022/09/24 02:32:44;;;;;;;1.33;0.80;;;;;;;;;;5027914;28;20499;-75
2022/09/24 02:35:12;;;;;;;1.75;0.73;;;;;;;;;;5027702;28;20050;-75
2022/09/24 02:37:41;;;;;;;0.98;0.88;;;;;;;;;;5025536;28;20045;-76
2022/09/24 02:40:11;;;;;;;0.98;0.70;;;;;;;;;;5023614;28;20386;-76
2022/09/24 02:42:40;;;;;;;1.15;0.85;;;;;;;;;;5028333;28;20139;-76
2022/09/24 02:45:09;;;;;;;0.80;0.80;;;;;;;;;;5020833;28;20049;-75
2022/09/24 02:47:41;;;;;;;2.70;1.02;;;;;;;;;;5022781;28;20050;-76
2022/09/24 02:50:11;;;;;;;1.40;0.77;;;;;;;;;;5022644;28;20407;-76
2022/09/24 02:52:39;;;;;;;0.73;0.63;;;;;;;;;;5020078;28;20509;-76
2022/09/24 02:55:08;;;;;;;0.75;0.63;;;;;;;;;;5024109;28;20055;-76
2022/09/24 02:57:36;;;;;;;0.70;0.70;;;;;;;;;;5025366;28;20404;-75
2022/09/24 03:00:05;;;;;;;2.25;1.25;;;;;;;;;;5024818;28;20045;-76
2022/09/24 03:02:33;;;;;;;1.23;0.90;;;;;;;;;;5022856;28;20060;-75
2022/09/24 03:05:03;;;;;;;1.05;1.05;;;;;;;;;;5029541;28;20529;-75
2022/09/24 03:07:32;;;;;;;1.50;0.63;;;;;;;;;;5020566;28;20140;-75
2022/09/24 03:10:00;;;;;;;1.33;0.88;;;;;;;;;;5026305;28;20049;-76
2022/09/24 03:12:29;;;;;;;0.93;0.60;;;;;;;;;;5026071;28;20096;-75
2022/09/24 03:14:57;;;;;;;2.67;0.88;;;;;;;;;;5031250;28;20053;-75
2022/09/24 03:17:26;;;;;;;1.40;1.13;;;;;;;;;;5024562;28;20064;-75
2022/09/24 03:19:55;;;;;;;1.15;0.73;;;;;;;;;;5028381;28;20177;-75
2022/09/24 03:22:24;;;;;;;0.98;0.88;;;;;;;;;;5021166;28;20041;-77
2022/09/24 03:24:53;;;;;;;1.42;0.95;;;;;;;;;;5024195;28;20045;-76
2022/09/24 03:27:21;;;;;;;2.00;0.95;;;;;;;;;;5024668;28;20108;-76
2022/09/24 03:32:38;;;;;;;1.02;0.80;;;;;;;;;;5016280;28;20054;-75
2022/09/24 03:35:07;;;;;;;1.13;0.80;;;;;;;;;;5027987;28;20056;-75
2022/09/24 03:37:40;;;;;;;2.90;1.35;;;;;;;;;;5026840;28;20434;-75
2022/09/24 03:40:14;;;;;;;1.17;0.70;;;;;;;;;;5024801;28;20554;-75
2022/09/24 03:42:42;;;;;;;1.40;0.63;;;;;;;;;;5016912;28;20061;-75
2022/09/24 03:45:11;;;;;;;2.33;0.93;;;;;;;;;;5015854;28;20466;-75
2022/09/24 03:47:41;;;;;;;2.40;0.90;;;;;;;;;;5026435;28;20056;-75
2022/09/24 03:50:10;;;;;;;3.67;1.00;;;;;;;;;;5024925;28;20445;-75
2022/09/24 03:52:40;;;;;;;1.05;0.93;;;;;;;;;;5027916;28;20049;-75
2022/09/24 03:55:08;;;;;;;1.90;1.30;;;;;;;;;;5027725;28;20049;-75
2022/09/24 03:57:37;;;;;;;0.63;0.63;;;;;;;;;;5024230;28;20050;-74
2022/09/24 04:00:05;;;;;;;2.28;0.93;;;;;;;;;;5024733;28;20049;-76
2022/09/24 04:02:34;;;;;;;0.50;0.50;;;;;;;;;;5022722;28;20081;-76
2022/09/24 04:05:02;;;;;;;1.70;0.93;;;;;;;;;;5027865;28;20402;-76
2022/09/24 04:07:30;;;;;;;0.77;0.75;;;;;;;;;;5028375;28;20429;-76
2022/09/24 04:10:00;;;;;;;1.05;0.95;;;;;;;;;;5028937;28;20041;-75
2022/09/24 04:12:30;;;;;;;0.65;0.57;;;;;;;;;;5026601;28;20129;-76
2022/09/24 04:15:01;;;;;;;1.35;0.80;;;;;;;;;;5021417;28;20045;-75
2022/09/24 04:17:30;;;;;;;1.35;0.85;;;;;;;;;;5025553;28;20995;-76
2022/09/24 04:19:58;;;;;;;3.03;0.85;;;;;;;;;;5026168;28;20045;-75
2022/09/24 04:22:28;;;;;;;1.25;1.15;;;;;;;;;;5023096;28;20052;-76
2022/09/24 04:24:56;;;;;;;1.05;0.73;;;;;;;;;;5022583;28;20048;-77
2022/09/24 04:27:26;;;;;;;1.75;1.08;;;;;;;;;;5023726;28;20253;-76
2022/09/24 04:29:54;;;;;;;1.20;0.82;;;;;;;;;;5025843;28;20045;-76
2022/09/24 04:32:23;;;;;;;0.60;0.43;;;;;;;;;;5017365;28;20053;-75
2022/09/24 04:34:51;;;;;;;0.47;0.47;;;;;;;;;;5016448;28;20046;-76
2022/09/24 04:37:19;;;;;;;1.00;0.65;;;;;;;;;;5018685;28;20059;-75
2022/09/24 04:39:47;;;;;;;0.77;0.75;;;;;;;;;;5023230;28;20045;-76
2022/09/24 04:42:20;;;;;;;1.60;0.90;;;;;;;;;;5024634;28;20049;-76
2022/09/24 04:44:50;;;;;;;0.65;0.50;;;;;;;;;;5015227;28;20068;-76
2022/09/24 04:47:24;;;;;;;0.95;0.63;;;;;;;;;;5025994;28;20132;-75
2022/09/24 04:49:53;;;;;;;0.70;0.60;;;;;;;;;;5027501;28;20042;-76
2022/09/24 04:52:28;;;;;;;2.00;0.90;;;;;;;;;;5027734;28;20045;-76
2022/09/24 04:54:57;;;;;;;0.95;0.63;;;;;;;;;;5022632;28;20075;-76
2022/09/24 04:57:25;;;;;;;4.72;0.55;;;;;;;;;;5022257;28;20061;-76
2022/09/24 04:59:55;;;;;;;3.22;0.90;;;;;;;;;;5024175;28;20056;-75
2022/09/24 05:02:23;;;;;;;1.23;0.98;;;;;;;;;;5021565;28;20053;-77
2022/09/24 05:04:52;;;;;;;1.85;1.60;;;;;;;;;;5020778;28;20045;-76
2022/09/24 05:07:20;;;;;;;0.98;0.95;;;;;;;;;;5025406;28;20045;-76
2022/09/24 05:09:48;;;;;;;1.38;0.73;;;;;;;;;;5023217;28;20055;-76
2022/09/24 05:12:19;;;;;;;2.45;1.45;;;;;;;;;;5023544;28;20045;-76
2022/09/24 05:14:48;;;;;;;0.60;0.60;;;;;;;;;;5027765;28;20048;-76
2022/09/24 05:17:17;;;;;;;0.82;0.80;;;;;;;;;;5021422;28;20049;-75
2022/09/24 05:19:46;;;;;;;1.58;1.25;;;;;;;;;;5026535;28;20142;-76
2022/09/24 05:22:14;;;;;;;1.13;0.93;;;;;;;;;;5024748;28;20049;-75
2022/09/24 05:24:42;;;;;;;2.80;1.50;;;;;;;;;;5021663;28;20516;-77
2022/09/24 05:27:10;;;;;;;1.13;0.80;;;;;;;;;;5020424;28;20056;-77
2022/09/24 05:29:39;;;;;;;0.88;0.88;;;;;;;;;;5021082;28;20053;-75
2022/09/24 05:32:07;;;;;;;1.75;1.13;;;;;;;;;;5019985;28;20058;-76
2022/09/24 05:34:37;;;;;;;1.08;0.98;;;;;;;;;;5026240;28;20497;-76
2022/09/24 05:37:06;;;;;;;2.65;0.93;;;;;;;;;;5024951;28;20046;-77
2022/09/24 05:39:36;;;;;;;1.58;0.95;;;;;;;;;;5028400;28;20061;-75
2022/09/24 05:42:06;;;;;;;0.75;0.73;;;;;;;;;;5017430;28;20049;-75
2022/09/24 05:44:36;;;;;;;0.47;0.47;;;;;;;;;;5023134;28;20517;-76
2022/09/24 05:47:05;;;;;;;2.97;0.80;;;;;;;;;;5028830;28;20481;-75
2022/09/24 05:49:33;;;;;;;1.15;0.90;;;;;;;;;;5021592;28;20046;-74
2022/09/24 05:52:03;;;;;;;1.30;0.70;;;;;;;;;;5027891;28;20397;-75
2022/09/24 05:54:32;;;;;;;1.27;0.68;;;;;;;;;;5026237;28;20050;-75
2022/09/24 05:57:00;;;;;;;1.27;0.80;;;;;;;;;;5029497;28;20053;-75
2022/09/24 05:59:31;;;;;;;1.75;0.60;;;;;;;;;;5026343;28;20042;-75
2022/09/24 06:01:59;;;;;;;2.22;0.85;;;;;;;;;;5025596;28;20041;-75
2022/09/24 06:04:27;;;;;;;1.40;0.80;;;;;;;;;;5026923;28;20148;-76
2022/09/24 06:10:31;;;;;;;1.52;1.00;;;;;;;;;;5024972;28;20493;-76
2022/09/24 06:13:00;;;;;;;0.63;0.60;;;;;;;;;;5015852;28;20503;-76
2022/09/24 06:15:31;;;;;;;6.78;1.08;;;;;;;;;;5027924;28;20041;-76
2022/09/24 06:17:59;;;;;;;1.05;1.00;;;;;;;;;;5025396;28;20056;-77
2022/09/24 06:20:28;;;;;;;1.48;0.85;;;;;;;;;;5029549;28;20060;-76
2022/09/24 06:22:57;;;;;;;1.42;0.80;;;;;;;;;;5025280;28;20129;-78
2022/09/24 06:25:25;;;;;;;0.80;0.80;;;;;;;;;;5020474;28;20082;-77
2022/09/24 06:27:59;;;;;;;1.10;0.98;;;;;;;;;;5021406;28;20411;-77
2022/09/24 06:30:28;;;;;;;1.35;1.08;;;;;;;;;;5025506;28;20057;-77
2022/09/24 06:32:56;;;;;;;1.83;0.98;;;;;;;;;;5023002;28;21554;-76
2022/09/24 06:35:24;;;;;;;1.85;1.00;;;;;;;;;;5024144;28;20057;-77
2022/09/24 06:37:53;;;;;;;1.55;0.93;;;;;;;;;;5016707;28;20467;-77
2022/09/24 06:40:23;;;;;;;1.27;1.13;;;;;;;;;;5019157;28;20427;-77
2022/09/24 06:42:52;;;;;;;3.70;1.02;;;;;;;;;;5024069;28;20061;-76
2022/09/24 06:45:22;;;;;;;0.90;0.60;;;;;;;;;;5018345;28;20050;-76
2022/09/24 06:47:55;;;;;;;0.60;0.60;;;;;;;;;;5024530;28;20052;-77
2022/09/24 06:50:26;;;;;;;3.03;1.33;;;;;;;;;;5019721;28;20365;-76
2022/09/24 06:52:55;;;;;;;1.55;0.93;;;;;;;;;;5021028;28;20057;-77
2022/09/24 06:55:23;;;;;;;2.85;0.90;;;;;;;;;;5024110;28;20497;-76
2022/09/24 06:58:01;;;;;;;3.97;0.75;;;;;;;;;;5024360;28;20042;-78
2022/09/24 07:00:31;;;;;;;2.72;0.90;;;;;;;;;;5024269;28;20425;-77
2022/09/24 07:03:00;;;;;;;1.27;0.68;;;;;;;;;;5020910;28;20442;-78
2022/09/24 07:05:28;;;;;;;2.10;1.33;;;;;;;;;;5015428;28;20046;-76
2022/09/24 07:07:56;;;;;;;0.98;0.88;;;;;;;;;;5027027;28;20057;-76
2022/09/24 07:10:27;;;;;;;0.85;0.60;;;;;;;;;;5021840;28;20048;-77
2022/09/24 07:12:56;;;;;;;0.60;0.60;;;;;;;;;;5025299;28;20049;-80
2022/09/24 07:15:24;;;;;;;1.50;0.93;;;;;;;;;;5015340;28;20097;-78
2022/09/24 07:17:57;;;;;;;1.35;0.80;;;;;;;;;;5026277;28;20053;-78
2022/09/24 07:20:27;;;;;;;0.98;0.80;;;;;;;;;;5022234;28;20060;-77
2022/09/24 07:22:55;;;;;;;0.50;0.50;;;;;;;;;;5019689;28;20061;-77
2022/09/24 07:25:24;;;;;;;2.33;1.02;;;;;;;;;;5011756;28;20590;-77
2022/09/24 07:27:52;;;;;;;1.60;0.90;;;;;;;;;;5024749;28;20057;-77
2022/09/24 07:30:21;;;;;;;1.00;0.90;;;;;;;;;;5019813;28;20076;-77
2022/09/24 07:32:54;;;;;;;2.15;0.70;;;;;;;;;;5021814;28;20053;-77
2022/09/24 07:35:24;;;;;;;0.95;0.85;;;;;;;;;;5016643;28;20140;-77
2022/09/24 07:37:59;;;;;;;1.85;1.10;;;;;;;;;;5020417;28;20576;-82
2022/09/24 07:40:27;;;;;;;;;;;;;;;;;;5021437;28;20046;-82
2022/09/24 07:42:56;;;;;;;0.75;0.75;;;;;;;;;;5020286;28;19932;-82
2022/09/24 07:45:26;;;;;;;2.67;0.90;;;;;;;;;;5020156;28;20057;-82
2022/09/24 07:47:58;;;;;;;3.38;1.00;;;;;;;;;;5021070;28;20119;-82
2022/09/24 07:50:28;;;;;;;0.60;0.60;;;;;;;;;;5020967;28;20515;-83
2022/09/24 07:52:59;;;;;;;1.25;0.98;;;;;;;;;;5026748;28;20432;-82
2022/09/24 07:55:28;;;;;;;1.80;1.02;;;;;;;;;;5022627;28;20045;-82
2022/09/24 07:57:56;;;;;;;1.55;0.60;;;;;;;;;;5022355;28;20045;-82
2022/09/24 08:00:26;;;;;;;2.95;1.20;;;;;;;;;;5022189;28;20140;-79
2022/09/24 08:02:55;;;;;;;1.23;1.00;;;;;;;;;;5012274;28;20049;-82
2022/09/24 08:05:24;;;;;;;1.80;1.10;;;;;;;;;;5017761;28;20057;-79
2022/09/24 08:07:54;;;;;;;1.13;0.80;;;;;;;;;;5025973;28;20481;-79
2022/09/24 08:10:22;;;;;;;0.88;0.70;;;;;;;;;;5019991;28;20055;-78
2022/09/24 08:12:52;;;;;;;2.33;0.70;;;;;;;;;;5015353;28;20058;-79
2022/09/24 08:15:22;;;;;;;1.27;0.50;;;;;;;;;;5015900;28;20404;-78
2022/09/24 08:17:50;;;;;;;0.52;0.52;;;;;;;;;;5019783;28;20042;-79
2022/09/24 08:20:20;;;;;;;1.98;0.73;;;;;;;;;;5017479;28;20045;-83
2022/09/24 08:22:48;;;;;;;1.02;0.70;;;;;;;;;;5021437;28;20524;-78
2022/09/24 08:25:19;;;;;;;1.88;1.15;;;;;;;;;;5020548;28;20056;-80
2022/09/24 08:27:47;;;;;;;1.10;0.93;;;;;;;;;;5022811;28;20512;-80
2022/09/24 08:30:17;;;;;;;2.10;0.80;;;;;;;;;;5025301;28;20037;-79
2022/09/24 08:32:48;;;;;;;1.23;1.13;;;;;;;;;;5018349;28;20068;-81
2022/09/24 08:35:17;;;;;;;3.05;1.08;;;;;;;;;;5019970;28;20076;-81
2022/09/24 08:37:48;;;;;;;1.50;0.70;;;;;;;;;;5018937;28;20050;-82
2022/09/24 08:40:17;;;;;;;0.95;0.80;;;;;;;;;;5015407;28;20136;-77
2022/09/24 08:42:49;;;;;;;1.95;1.35;;;;;;;;;;5014414;28;20045;-77
2022/09/24 08:48:09;;;;;;;2.80;1.15;;;;;;;;;;5018505;28;20141;-80
2022/09/24 08:50:38;;;;;;;1.38;0.90;;;;;;;;;;5014460;28;20052;-81
2022/09/24 08:53:11;;;;;;;5.82;1.13;;;;;;;;;;5013399;28;20537;-79
2022/09/24 08:55:41;;;;;;;1.85;0.90;;;;;;;;;;5012029;28;20054;-79
2022/09/24 08:58:22;;;;;;;0.70;0.55;;;;;;;;;;5010708;28;20063;-81
2022/09/24 09:00:54;;;;;;;0.70;0.70;;;;;;;;;;5017606;28;20057;-79
2022/09/24 09:03:29;;;;;;;1.27;0.82;;;;;;;;;;5013309;28;20069;-81
2022/09/24 09:05:59;;;;;;;2.15;0.98;;;;;;;;;;5017809;28;20056;-77
2022/09/24 09:08:30;;;;;;;3.42;1.15;;;;;;;;;;5018826;28;20607;-80
2022/09/24 09:11:22;;;;;;;6.63;1.10;;;;;;;;;;5015094;28;20056;-80
2022/09/24 09:13:53;;;;;;;3.13;1.75;;;;;;;;;;5015598;28;20500;-79
2022/09/24 09:16:24;;;;;;;2.75;1.17;;;;;;;;;;5016945;28;20528;-81
2022/09/24 09:18:54;;;;;;;2.45;1.48;;;;;;;;;;5021034;28;20060;-81
2022/09/24 09:21:27;;;;;;;2.33;1.33;;;;;;;;;;5021654;28;20041;-81
2022/09/24 09:23:57;;;;;;;2.08;1.20;;;;;;;;;;5024649;28;20056;-81
2022/09/24 09:26:26;;;;;;;2.72;1.67;;;;;;;;;;5027438;28;20135;-80
2022/09/24 09:28:59;;;;;;;3.67;1.20;;;;;;;;;;5022527;28;20042;-81
2022/09/24 09:31:33;;;;;;;1.20;0.65;;;;;;;;;;5023564;28;20477;-79
2022/09/24 09:34:08;;;;;;;2.63;0.80;;;;;;;;;;5024334;28;20084;-79
2022/09/24 09:36:44;;;;;;;1.55;0.90;;;;;;;;;;5023754;28;20049;-80
2022/09/24 09:39:21;;;;;;;2.42;1.50;;;;;;;;;;5022871;28;20545;-78
2022/09/24 09:41:53;;;;;;;1.23;1.13;;;;;;;;;;5018822;28;20069;-81
2022/09/24 09:44:25;;;;;;;1.17;1.08;;;;;;;;;;5024341;28;20061;-81
2022/09/24 09:46:56;;;;;;;1.15;0.88;;;;;;;;;;5026068;28;20056;-80
2022/09/24 09:49:28;;;;;;;1.33;1.23;;;;;;;;;;5026746;28;20045;-78
2022/09/24 09:51:57;;;;;;;3.67;1.60;;;;;;;;;;5025533;28;20052;-78
2022/09/24 09:54:36;;;;;;;4.20;1.02;;;;;;;;;;5027626;28;20508;-80
2022/09/24 09:57:06;;;;;;;2.97;1.30;;;;;;;;;;5025535;28;20041;-78
2022/09/24 09:59:36;;;;;;;1.98;1.08;;;;;;;;;;5030375;28;20053;-80
2022/09/24 10:02:10;;;;;;;1.77;1.08;;;;;;;;;;5021516;28;20224;-81
2022/09/24 10:04:40;;;;;;;1.35;1.25;;;;;;;;;;5023935;28;20052;-79
2022/09/24 10:07:09;;;;;;;1.23;1.00;;;;;;;;;;5029656;28;20048;-80
2022/09/24 10:09:38;;;;;;;1.08;0.98;;;;;;;;;;5024182;28;20085;-80
2022/09/24 10:12:07;;;;;;;4.05;0.90;;;;;;;;;;5030581;28;20519;-80
2022/09/24 10:14:40;;;;;;;2.15;1.42;;;;;;;;;;5025668;28;20425;-83
2022/09/24 10:17:12;;;;;;;2.25;0.98;;;;;;;;;;5030851;28;20511;-83
2022/09/24 10:19:41;;;;;;;6.45;1.10;;;;;;;;;;5028378;28;20734;-83
2022/09/24 10:22:13;;;;;;;2.95;1.83;;;;;;;;;;5029909;28;20045;-83
2022/09/24 10:24:42;;;;;;;2.13;1.08;;;;;;;;;;5021251;28;20124;-84
2022/09/24 10:27:15;;;;;;;3.20;1.20;;;;;;;;;;5023409;28;20061;-83
2022/09/24 10:32:31;;;;;;;1.73;0.93;;;;;;;;;;5027965;28;20045;-81
2022/09/24 10:35:00;;;;;;;3.67;1.17;;;;;;;;;;5022417;28;20204;-80
2022/09/24 10:37:29;;;;;;;1.65;1.13;;;;;;;;;;5029045;28;20055;-82
2022/09/24 10:39:58;;;;;;;1.30;0.90;;;;;;;;;;5025084;28;20045;-81
2022/09/24 10:42:28;;;;;;;0.77;0.77;;;;;;;;;;5024771;28;20076;-83
2022/09/24 10:45:00;;;;;;;3.95;1.20;;;;;;;;;;5027426;28;20049;-82
2022/09/24 10:47:33;;;;;;;1.60;1.42;;;;;;;;;;5025281;28;20045;-81
2022/09/24 10:50:06;;;;;;;1.98;1.08;;;;;;;;;;5028762;28;20133;-82
2022/09/24 10:52:41;;;;;;;2.03;0.98;;;;;;;;;;5015396;28;20053;-84
2022/09/24 10:55:15;;;;;;;8.80;1.60;;;;;;;;;;5018106;28;20064;-84
2022/09/24 10:57:48;;;;;;;1.30;1.20;;;;;;;;;;5027248;28;20049;-77
2022/09/24 11:00:20;;;;;;;11.27;3.38;;;;;;;;;;5028087;28;20050;-77
2022/09/24 11:03:05;;;;;;;5.75;1.95;;;;;;;;;;5026297;28;20041;-76
2022/09/24 11:05:36;;;;;;;10.95;3.13;;;;;;;;;;5025846;28;20080;-77
2022/09/24 11:08:08;;;;;;;2.97;1.40;;;;;;;;;;5027435;28;20056;-75
2022/09/24 11:10:50;;;;;;;4.78;1.73;;;;;;;;;;5029888;28;20497;-77
2022/09/24 11:13:24;;;;;;;3.85;1.60;;;;;;;;;;5014593;28;20037;-77
2022/09/24 11:16:04;;;;;;;2.85;1.25;;;;;;;;;;5021636;28;20061;-77
2022/09/24 11:18:40;;;;;;;2.20;1.20;;;;;;;;;;5022257;28;20046;-77
2022/09/24 11:21:16;;;;;;;2.65;1.23;;;;;;;;;;5028831;28;20092;-77
2022/09/24 11:23:53;;;;;;;6.57;1.58;;;;;;;;;;5024070;28;20049;-77
2022/09/24 11:26:25;;;;;;;3.78;1.58;;;;;;;;;;5027345;28;20048;-77
2022/09/24 11:29:08;;;;;;;3.13;1.35;;;;;;;;;;5025473;28;20053;-77
2022/09/24 11:31:41;;;;;;;5.07;1.23;;;;;;;;;;5022929;28;20137;-77
2022/09/24 11:34:18;;;;;;;1.30;1.13;;;;;;;;;;5021951;28;20553;-76
2022/09/24 11:36:52;;;;;;;1.73;1.00;;;;;;;;;;5021982;28;20083;-76
2022/09/24 11:39:26;;;;;;;0.98;0.93;;;;;;;;;;5025172;28;20052;-77
2022/09/24 11:42:02;;;;;;;1.40;1.15;;;;;;;;;;5024888;28;20072;-77
2022/09/24 11:44:49;;;;;;;2.53;1.20;;;;;;;;;;5024642;28;20050;-78
2022/09/24 11:47:25;;;;;;;3.13;1.73;;;;;;;;;;4986679;28;20056;-77
2022/09/24 11:50:03;;;;;;;1.63;1.27;;;;;;;;;;5028960;28;20355;-77
2022/09/24 11:52:33;;;;;;;1.67;1.17;;;;;;;;;;5020764;28;20041;-78
2022/09/24 11:55:05;;;;;;;1.73;1.08;;;;;;;;;;5016961;28;20476;-77
2022/09/24 11:57:35;;;;;;;1.75;1.15;;;;;;;;;;5027605;28;20049;-77
2022/09/24 12:00:07;;;;;;;1.77;1.38;;;;;;;;;;5025836;28;20055;-78
2022/09/24 12:02:38;;;;;;;2.17;1.63;;;;;;;;;;5017224;28;20053;-78
2022/09/24 12:05:08;;;;;;;2.08;1.17;;;;;;;;;;5022074;28;20048;-77
2022/09/24 12:07:39;;;;;;;6.20;1.73;;;;;;;;;;5024890;28;20072;-78
2022/09/24 12:10:18;;;;;;;3.60;1.77;;;;;;;;;;5021429;28;20046;-78
2022/09/24 12:12:49;;;;;;;3.22;1.77;;;;;;;;;;5023999;28;20045;-81
2022/09/24 12:15:20;;;;;;;1.83;1.27;;;;;;;;;;5019821;28;20051;-79
2022/09/24 12:17:51;;;;;;;2.92;1.95;;;;;;;;;;5020619;28;20045;-79
2022/09/24 12:20:25;;;;;;;1.75;1.05;;;;;;;;;;5027194;28;20069;-82
2022/09/24 12:22:58;;;;;;;3.53;1.67;;;;;;;;;;5029426;28;20405;-80
2022/09/24 12:25:28;;;;;;;1.58;1.27;;;;;;;;;;5029288;28;20072;-79
2022/09/24 12:27:57;;;;;;;4.50;1.75;;;;;;;;;;5026588;28;20057;-78
2022/09/24 12:33:24;;;;;;;2.72;1.83;;;;;;;;;;5022072;28;20046;-80
2022/09/24 12:36:00;;;;;;;2.78;1.75;;;;;;;;;;5018962;28;20049;-79
2022/09/24 12:38:33;;;;;;;9.20;1.70;;;;;;;;;;5018046;28;20060;-79
2022/09/24 12:41:16;;;;;;;2.58;1.20;;;;;;;;;;5019068;28;20133;-85
2022/09/24 12:43:47;;;;;;;2.45;1.20;;;;;;;;;;5025654;28;20072;-83
2022/09/24 12:46:17;;;;;;;2.70;1.40;;;;;;;;;;5027896;28;20045;-83
2022/09/24 12:48:50;;;;;;;1.75;1.08;;;;;;;;;;5025949;28;20131;-84
2022/09/24 12:51:22;;;;;;;1.77;0.90;;;;;;;;;;5022580;28;20073;-83
2022/09/24 12:53:58;;;;;;;3.78;1.38;;;;;;;;;;5023827;28;20045;-87
2022/09/24 12:56:28;;;;;;;2.42;1.40;;;;;;;;;;5021079;28;20055;-84
2022/09/24 12:58:57;;;;;;;2.33;1.58;;;;;;;;;;5025953;28;20047;-88
2022/09/24 13:01:29;;;;;;;1.60;1.10;;;;;;;;;;5019868;28;20041;-89
2022/09/24 13:04:19;;;;;;;2.95;1.45;;;;;;;;;;5023148;28;20101;-85
2022/09/24 13:06:49;;;;;;;2.95;1.60;;;;;;;;;;5017539;28;20071;-88
2022/09/24 13:09:32;;;;;;;2.42;1.35;;;;;;;;;;5023572;28;20080;-87
2022/09/24 13:12:04;;;;;;;4.32;1.27;;;;;;;;;;5023380;28;20055;-88
2022/09/24 13:14:34;;;;;;;2.08;1.40;;;;;;;;;;5024328;28;20381;-87
2022/09/24 13:17:06;;;;;;;2.03;1.58;;;;;;;;;;5017130;28;20609;-91
2022/09/24 13:19:37;;;;;;;4.35;1.35;;;;;;;;;;5021315;28;20045;-86
2022/09/24 13:22:07;;;;;;;4.80;1.30;;;;;;;;;;5023194;28;20129;-88
2022/09/24 13:24:46;;;;;;;2.85;1.40;;;;;;;;;;5013459;28;20065;-87
2022/09/24 13:27:21;;;;;;;2.40;1.60;;;;;;;;;;5023100;28;20489;-81
2022/09/24 13:29:50;;;;;;;;;;;;;;;;;;5024206;28;20100;-79
2022/09/24 13:32:20;;;;;;;2.90;1.02;;;;;;;;;;5019924;28;20395;-87
2022/09/24 13:34:49;;;;;;;2.88;1.80;;;;;;;;;;5019416;28;20419;-81
2022/09/24 13:37:21;;;;;;;2.80;1.60;;;;;;;;;;5024679;28;20043;-86
2022/09/24 13:39:52;;;;;;;1.88;1.40;;;;;;;;;;5022245;28;20181;-89
2022/09/24 13:42:22;;;;;;;2.40;1.83;;;;;;;;;;5015839;28;20129;-81
2022/09/24 13:44:53;;;;;;;2.55;1.63;;;;;;;;;;5019721;28;20128;-75
2022/09/24 13:47:25;;;;;;;2.13;1.30;;;;;;;;;;5019729;28;20100;-78
2022/09/24 13:49:55;;;;;;;2.08;1.45;;;;;;;;;;5020947;28;20049;-78
2022/09/24 13:52:29;;;;;;;1.65;1.35;;;;;;;;;;5017298;28;20177;-77
2022/09/24 13:55:00;;;;;;;1.13;1.00;;;;;;;;;;5017078;28;20104;-77
2022/09/24 13:57:29;;;;;;;1.50;1.27;;;;;;;;;;5026867;28;20045;-78
2022/09/24 14:00:19;;;;;;;2.80;1.10;;;;;;;;;;5017249;28;20140;-78
2022/09/24 14:02:53;;;;;;;1.48;1.08;;;;;;;;;;5023678;28;20045;-77
2022/09/24 14:05:25;;;;;;;2.85;1.48;;;;;;;;;;5013403;28;20058;-78
2022/09/24 14:07:56;;;;;;;2.63;1.52;;;;;;;;;;5014124;28;20045;-77
2022/09/24 14:10:25;;;;;;;3.35;1.58;;;;;;;;;;5026757;28;20141;-78
2022/09/24 14:13:00;;;;;;;2.13;1.27;;;;;;;;;;5028713;28;20053;-77
2022/09/24 14:15:28;;;;;;;3.00;0.98;;;;;;;;;;5023086;28;20045;-77
2022/09/24 14:17:57;;;;;;;1.42;1.10;;;;;;;;;;5024676;28;20053;-77
2022/09/24 14:20:28;;;;;;;1.90;1.40;;;;;;;;;;5024079;28;20057;-78
2022/09/24 14:22:58;;;;;;;1.75;1.05;;;;;;;;;;5021121;28;20054;-78
2022/09/24 14:25:29;;;;;;;1.42;1.10;;;;;;;;;;5020433;28;20051;-77
2022/09/24 14:27:58;;;;;;;3.08;1.00;;;;;;;;;;5025391;28;20485;-77
2022/09/24 14:30:28;;;;;;;2.22;1.42;;;;;;;;;;5025983;28;20042;-77
2022/09/24 14:33:00;;;;;;;2.30;1.58;;;;;;;;;;5029444;28;20132;-77
2022/09/24 14:35:30;;;;;;;2.53;1.10;;;;;;;;;;5027987;28;20037;-77
2022/09/24 14:38:07;;;;;;;2.25;1.33;;;;;;;;;;5027612;28;20045;-77
2022/09/24 14:40:43;;;;;;;1.23;0.98;;;;;;;;;;5018522;28;20060;-77
2022/09/24 14:43:16;;;;;;;1.20;0.88;;;;;;;;;;5022291;28;20083;-78
2022/09/24 14:45:45;;;;;;;3.03;1.42;;;;;;;;;;5019781;28;20049;-77
2022/09/24 14:48:20;;;;;;;1.40;1.00;;;;;;;;;;5028926;28;20148;-77
2022/09/24 14:50:48;;;;;;;2.00;1.30;;;;;;;;;;5019418;28;20148;-77
2022/09/24 14:53:22;;;;;;;2.55;1.15;;;;;;;;;;5024457;28;20054;-78
2022/09/24 14:55:51;;;;;;;2.85;1.52;;;;;;;;;;5018520;28;20129;-77
2022/09/24 14:58:25;;;;;;;2.42;1.20;;;;;;;;;;5023251;28;20056;-77
2022/09/24 15:00:56;;;;;;;2.17;1.23;;;;;;;;;;5020052;28;20107;-78
2022/09/24 15:03:28;;;;;;;2.65;1.23;;;;;;;;;;5026899;28;20094;-77
2022/09/24 15:06:05;;;;;;;2.10;1.23;;;;;;;;;;5028852;28;20054;-77
2022/09/24 15:08:36;;;;;;;2.60;0.98;;;;;;;;;;5031131;28;20093;-77
2022/09/24 15:11:07;;;;;;;3.65;1.60;;;;;;;;;;5026873;28;20057;-77
2022/09/24 15:13:37;;;;;;;1.85;1.48;;;;;;;;;;5022985;28;21448;-77
2022/09/24 15:16:07;;;;;;;2.42;1.05;;;;;;;;;;5020326;28;20168;-77
2022/09/24 15:18:35;;;;;;;1.38;1.27;;;;;;;;;;5022456;28;20065;-77
2022/09/24 15:21:07;;;;;;;1.90;1.35;;;;;;;;;;5019508;28;20421;-78
2022/09/24 15:23:37;;;;;;;2.15;1.42;;;;;;;;;;5023439;28;20417;-77